Time;durP1;ratioP1;P1;durP2;ratioP2;P2;SDS_P1;SDS_P2;PMS_P1;PMS_P2;Temp;Humidity;BMP_temperature;BMP_pressure;BME280_temperature;BME280_humidity;BME280_pressure;Samples;Min_cycle;Max_cycle;Signal;HPM_P1;HPM_P2
2023/12/04 00:00:10;;;;;;;25.85;13.77;;;;;;;1.08;93.81;101743.66;10518565;28;20501;-60
2023/12/04 00:05:32;;;;;;;30.73;15.68;;;;;;;1.06;94.13;101735.13;10517612;28;20420;-61
2023/12/04 00:10:54;;;;;;;26.40;14.93;;;;;;;1.02;92.53;101719.78;10516703;28;20075;-60
2023/12/04 00:16:15;;;;;;;28.60;15.77;;;;;;;1.04;91.95;101715.53;10512778;28;20130;-61
2023/12/04 00:21:37;;;;;;;30.05;16.63;;;;;;;1.01;94.08;101700.19;10514952;28;20066;-60
2023/12/04 00:26:58;;;;;;;32.90;15.95;;;;;;;1.04;94.60;101695.16;10517322;28;20048;-60
2023/12/04 00:32:20;;;;;;;32.72;16.88;;;;;;;1.01;95.34;101694.25;10522307;28;20587;-60
2023/12/04 00:37:42;;;;;;;32.55;17.40;;;;;;;1.02;96.22;101686.66;10525139;28;20052;-60
2023/12/04 00:43:03;;;;;;;30.38;17.33;;;;;;;0.97;94.88;101672.94;10528291;28;20044;-61
2023/12/04 00:48:25;;;;;;;33.35;18.33;;;;;;;0.99;94.36;101680.59;10526614;28;20365;-60
2023/12/04 00:53:46;;;;;;;32.88;17.88;;;;;;;1.01;95.56;101664.53;10539112;28;20048;-60
2023/12/04 00:59:09;;;;;;;32.83;17.50;;;;;;;1.01;94.69;101674.72;10533262;28;20041;-60
2023/12/04 01:04:31;;;;;;;34.75;18.65;;;;;;;0.97;95.79;101660.19;10518629;28;20106;-60
2023/12/04 01:09:52;;;;;;;31.00;17.70;;;;;;;0.94;94.52;101655.03;10518384;28;20044;-60
2023/12/04 01:15:14;;;;;;;33.13;18.30;;;;;;;0.99;95.79;101645.81;10521150;28;20131;-60
2023/12/04 01:20:36;;;;;;;32.58;18.10;;;;;;;1.01;95.28;101643.28;10532092;27;20055;-60
2023/12/04 01:25:58;;;;;;;35.00;18.40;;;;;;;1.07;96.55;101645.09;10520462;28;20134;-60
2023/12/04 01:31:19;;;;;;;34.90;18.95;;;;;;;1.07;95.86;101642.56;10529039;28;20139;-60
2023/12/04 01:36:41;;;;;;;37.72;19.30;;;;;;;1.04;96.08;101623.81;10533801;28;20090;-60
2023/12/04 01:42:03;;;;;;;35.13;18.40;;;;;;;1.00;97.13;101621.19;10514181;28;20500;-60
2023/12/04 01:47:25;;;;;;;32.97;18.10;;;;;;;1.06;96.07;101630.66;10525329;28;20051;-61
2023/12/04 01:52:49;;;;;;;34.38;18.10;;;;;;;1.00;97.60;101616.97;10541628;27;20134;-60
2023/12/04 01:58:11;;;;;;;35.85;18.45;;;;;;;1.01;96.82;101603.41;10527357;28;20081;-59
2023/12/04 02:03:33;;;;;;;33.30;18.77;;;;;;;1.02;97.22;101605.13;10532340;27;20048;-60
2023/12/04 02:08:56;;;;;;;37.15;19.33;;;;;;;1.08;98.96;101601.84;10516346;28;20067;-60
2023/12/04 02:14:17;;;;;;;32.67;18.70;;;;;;;1.06;99.01;101592.44;10530591;27;20147;-60
2023/12/04 02:19:39;;;;;;;37.88;19.45;;;;;;;1.06;99.26;101589.91;10529969;28;20036;-60
2023/12/04 02:25:01;;;;;;;34.50;18.17;;;;;;;1.04;99.45;101580.53;10522294;28;20053;-60
2023/12/04 02:30:24;;;;;;;35.30;18.67;;;;;;;0.98;99.35;101567.69;10520336;28;20064;-60
2023/12/04 02:35:50;;;;;;;34.90;18.15;;;;;;;1.00;100.00;101571.13;10521323;28;20048;-60
2023/12/04 02:41:12;;;;;;;35.17;17.65;;;;;;;1.03;100.00;101565.22;10514096;28;20094;-60
2023/12/04 02:46:34;;;;;;;36.03;18.75;;;;;;;1.06;100.00;101550.00;10513136;28;20480;-60
2023/12/04 02:51:57;;;;;;;32.40;17.17;;;;;;;1.00;100.00;101549.88;10534133;28;20043;-60
2023/12/04 02:57:20;;;;;;;33.65;17.92;;;;;;;0.99;100.00;101549.00;10531503;27;20052;-60
2023/12/04 03:02:41;;;;;;;35.63;17.83;;;;;;;0.98;100.00;101539.66;10529845;28;20048;-61
2023/12/04 03:08:03;;;;;;;33.28;17.33;;;;;;;1.02;100.00;101532.94;10518139;28;20083;-60
2023/12/04 03:13:25;;;;;;;33.70;18.58;;;;;;;1.01;100.00;101526.97;10521999;28;20063;-60
2023/12/04 03:18:47;;;;;;;33.58;17.48;;;;;;;0.99;100.00;101523.53;10532040;28;20455;-60
2023/12/04 03:24:08;;;;;;;36.75;18.25;;;;;;;0.93;100.00;101512.38;10520441;28;20109;-60
2023/12/04 03:29:30;;;;;;;30.55;17.33;;;;;;;0.96;100.00;101503.09;10533455;27;20081;-60
2023/12/04 03:34:52;;;;;;;33.17;16.98;;;;;;;0.93;100.00;101492.84;10521005;28;20059;-60
2023/12/04 03:40:13;;;;;;;36.58;17.65;;;;;;;0.93;100.00;101503.03;10516073;28;20040;-60
2023/12/04 03:45:35;;;;;;;33.95;18.25;;;;;;;0.89;100.00;101501.28;10537062;28;20094;-60
2023/12/04 03:50:56;;;;;;;34.83;18.08;;;;;;;0.92;100.00;101483.50;10521809;28;20151;-60
2023/12/04 03:56:18;;;;;;;33.88;18.02;;;;;;;0.95;100.00;101482.69;10523036;28;20488;-60
2023/12/04 04:01:40;;;;;;;33.33;18.70;;;;;;;0.93;100.00;101462.28;10520369;28;20047;-60
2023/12/04 04:07:01;;;;;;;38.03;18.50;;;;;;;0.94;100.00;101461.47;10522173;28;20117;-59
2023/12/04 04:12:23;;;;;;;32.85;17.98;;;;;;;0.94;100.00;101448.72;10523368;28;20052;-60
2023/12/04 04:17:45;;;;;;;32.47;18.20;;;;;;;0.98;100.00;101445.41;10512751;28;20048;-60
2023/12/04 04:23:06;;;;;;;36.85;18.17;;;;;;;0.99;100.00;101452.19;10516082;28;20044;-60
2023/12/04 04:28:28;;;;;;;32.38;18.35;;;;;;;0.99;100.00;101442.00;10520161;28;20055;-60
2023/12/04 04:33:50;;;;;;;35.60;17.52;;;;;;;1.00;100.00;101433.56;10517465;28;20608;-60
2023/12/04 04:39:13;;;;;;;35.30;16.88;;;;;;;0.98;100.00;101432.66;10515142;28;20059;-60
2023/12/04 04:44:35;;;;;;;36.58;18.77;;;;;;;1.00;100.00;101425.06;10517247;28;20052;-60
2023/12/04 04:49:56;;;;;;;31.48;17.75;;;;;;;0.99;100.00;101431.81;10520302;28;20584;-60
2023/12/04 04:55:21;;;;;;;31.58;16.98;;;;;;;1.04;100.00;101414.09;10519987;28;20509;-60
2023/12/04 05:01:02;;;;;;;31.85;16.48;;;;;;;1.03;100.00;101397.94;10517331;28;20044;-59
2023/12/04 05:06:24;;;;;;;34.58;17.55;;;;;;;1.04;100.00;101399.63;10517558;28;20089;-60
2023/12/04 05:11:46;;;;;;;35.25;17.63;;;;;;;1.06;100.00;101386.09;10524581;28;20061;-60
2023/12/04 05:17:07;;;;;;;33.67;17.83;;;;;;;1.06;100.00;101386.09;10509048;28;20149;-60
2023/12/04 05:22:29;;;;;;;31.40;17.42;;;;;;;1.06;100.00;101391.19;10524978;28;20140;-60
2023/12/04 05:27:51;;;;;;;32.00;17.35;;;;;;;1.12;100.00;101386.22;10521203;28;20400;-59
2023/12/04 05:33:12;;;;;;;36.92;17.67;;;;;;;1.12;100.00;101379.41;10527104;28;20079;-60
2023/12/04 05:38:34;;;;;;;32.78;17.45;;;;;;;1.16;100.00;101377.75;10523680;28;20048;-60
2023/12/04 05:43:56;;;;;;;32.17;17.42;;;;;;;1.19;100.00;101367.63;10527949;28;20050;-60
2023/12/04 05:49:18;;;;;;;31.55;17.33;;;;;;;1.23;100.00;101356.66;10523706;28;20058;-60
2023/12/04 05:54:39;;;;;;;35.17;17.58;;;;;;;1.24;100.00;101366.00;10524247;28;20051;-60
2023/12/04 06:00:01;;;;;;;30.67;17.35;;;;;;;1.25;100.00;101363.47;10527474;28;20040;-60
2023/12/04 06:05:23;;;;;;;32.33;17.15;;;;;;;1.29;100.00;101352.50;10525144;28;20051;-60
2023/12/04 06:10:46;;;;;;;31.38;16.75;;;;;;;1.33;100.00;101350.84;10524553;28;20484;-60
2023/12/04 06:16:08;;;;;;;34.20;17.15;;;;;;;1.32;100.00;101350.00;10524187;28;20043;-60
2023/12/04 06:21:30;;;;;;;32.08;17.40;;;;;;;1.35;100.00;101339.00;10530885;28;20101;-60
2023/12/04 06:26:52;;;;;;;31.98;16.92;;;;;;;1.39;100.00;101326.31;10523657;28;20048;-60
2023/12/04 06:32:14;;;;;;;31.20;16.85;;;;;;;1.43;100.00;101338.28;10530341;28;20483;-61
2023/12/04 06:37:38;;;;;;;29.42;15.90;;;;;;;1.46;100.00;101337.47;10528561;28;20546;-61
2023/12/04 06:43:00;;;;;;;30.77;16.00;;;;;;;1.46;100.00;101329.81;10509140;28;20096;-61
2023/12/04 06:48:22;;;;;;;31.35;16.95;;;;;;;1.48;100.00;101339.22;10538260;27;20048;-61
2023/12/04 06:53:44;;;;;;;30.05;16.52;;;;;;;1.50;100.00;101334.13;10537712;27;20053;-61
2023/12/04 06:59:05;;;;;;;28.98;16.02;;;;;;;1.51;100.00;101335.84;10538462;27;20465;-61
2023/12/04 07:04:27;;;;;;;27.27;15.73;;;;;;;1.49;100.00;101322.22;10521615;28;20048;-61
2023/12/04 07:09:49;;;;;;;31.42;16.95;;;;;;;1.52;100.00;101328.22;10526364;28;20043;-60
2023/12/04 07:15:11;;;;;;;31.80;16.35;;;;;;;1.54;100.00;101335.91;10531363;28;20488;-60
2023/12/04 07:20:33;;;;;;;32.35;15.63;;;;;;;1.51;100.00;101330.75;10515987;28;20071;-60
2023/12/04 07:25:57;;;;;;;30.80;16.02;;;;;;;1.52;100.00;101327.38;10517820;28;20561;-61
2023/12/04 07:31:19;;;;;;;30.75;16.70;;;;;;;1.51;100.00;101330.75;10516429;28;20047;-61
2023/12/04 07:36:41;;;;;;;29.75;16.27;;;;;;;1.57;100.00;101323.19;10515874;28;20139;-61
2023/12/04 07:42:03;;;;;;;45.08;18.25;;;;;;;1.53;100.00;101318.88;10526539;27;20070;-61
2023/12/04 07:47:33;;;;;;;31.85;15.75;;;;;;;1.56;100.00;101319.78;10515701;28;20051;-60
2023/12/04 07:52:55;;;;;;;24.95;14.65;;;;;;;1.60;100.00;101319.00;10513595;28;20519;-60
2023/12/04 07:58:17;;;;;;;25.45;14.30;;;;;;;1.62;100.00;101324.09;10522623;28;20040;-61
2023/12/04 08:03:39;;;;;;;26.08;14.88;;;;;;;1.62;100.00;101313.91;10514329;28;20504;-61
2023/12/04 08:09:01;;;;;;;26.52;14.68;;;;;;;1.70;100.00;101308.06;10530721;28;20389;-61
2023/12/04 08:14:22;;;;;;;23.38;14.15;;;;;;;1.72;100.00;101297.91;10518100;28;20044;-61
2023/12/04 08:19:44;;;;;;;33.78;14.52;;;;;;;1.72;100.00;101275.78;10516474;28;20393;-60
2023/12/04 08:25:08;;;;;;;23.42;13.48;;;;;;;1.71;100.00;101263.03;10517499;28;20131;-61
2023/12/04 08:30:30;;;;;;;26.23;13.05;;;;;;;1.76;100.00;101254.59;10513452;28;20044;-61
2023/12/04 08:35:51;;;;;;;23.83;13.70;;;;;;;1.76;100.00;101253.72;10518777;28;20055;-61
2023/12/04 08:41:13;;;;;;;21.83;12.60;;;;;;;1.75;100.00;101252.91;10516545;28;20568;-61
2023/12/04 08:46:34;;;;;;;21.20;12.43;;;;;;;1.78;100.00;101239.31;10513635;28;20044;-60
2023/12/04 08:51:56;;;;;;;22.10;12.30;;;;;;;1.77;100.00;101232.50;10505832;28;20463;-60
2023/12/04 08:57:18;;;;;;;23.27;12.95;;;;;;;1.77;100.00;101237.59;10533171;28;20151;-61
2023/12/04 09:02:39;;;;;;;25.08;13.25;;;;;;;1.77;99.92;101227.41;10527963;28;20392;-60
2023/12/04 09:08:10;;;;;;;22.63;12.55;;;;;;;1.80;98.80;101237.63;10533175;28;20068;-60
2023/12/04 09:13:51;;;;;;;20.63;12.00;;;;;;;1.84;100.00;101239.38;10521390;28;20048;-60
2023/12/04 09:19:13;;;;;;;18.88;11.63;;;;;;;1.84;100.00;101241.94;10509351;28;20504;-60
2023/12/04 09:24:35;;;;;;;21.15;11.93;;;;;;;1.93;100.00;101245.47;10521779;28;20135;-59
2023/12/04 09:29:57;;;;;;;22.55;12.82;;;;;;;1.93;100.00;101239.50;10529775;28;20067;-59
2023/12/04 09:35:18;;;;;;;20.15;11.70;;;;;;;1.97;100.00;101241.25;10528693;28;20519;-60
2023/12/04 09:40:40;;;;;;;18.65;11.68;;;;;;;1.97;100.00;101241.25;10519743;28;20055;-60
2023/12/04 09:46:02;;;;;;;20.17;11.50;;;;;;;2.00;99.43;101229.38;10519980;28;20040;-60
2023/12/04 09:51:26;;;;;;;23.02;11.02;;;;;;;1.99;99.65;101229.38;10508620;28;20443;-60
2023/12/04 09:56:49;;;;;;;22.27;10.95;;;;;;;2.04;99.57;101233.69;10529932;28;20072;-60
2023/12/04 10:02:11;;;;;;;19.85;11.80;;;;;;;2.08;99.62;101229.47;10522354;28;20049;-60
2023/12/04 10:07:34;;;;;;;20.20;11.70;;;;;;;2.12;99.87;101220.13;10524719;28;20040;-60
2023/12/04 10:12:58;;;;;;;20.48;11.70;;;;;;;2.12;97.95;101217.59;10504940;28;20051;-60
2023/12/04 10:18:30;;;;;;;21.15;11.55;;;;;;;2.16;98.80;101212.53;10521732;27;20044;-59
2023/12/04 10:23:52;;;;;;;20.05;10.85;;;;;;;2.17;95.62;101198.94;10537348;28;20055;-60
2023/12/04 10:29:13;;;;;;;16.17;10.52;;;;;;;2.20;95.97;101193.84;10519591;28;20047;-59
2023/12/04 10:34:35;;;;;;;23.63;12.23;;;;;;;2.19;94.14;101176.84;10523023;28;20056;-59
2023/12/04 10:39:57;;;;;;;19.15;11.05;;;;;;;2.26;95.33;101167.53;10529636;28;20101;-59
2023/12/04 10:45:22;;;;;;;17.92;11.43;;;;;;;2.30;95.13;101159.91;10484232;28;20139;-59
2023/12/04 10:50:46;;;;;;;16.00;10.03;;;;;;;2.34;95.58;101156.56;10527728;28;20056;-59
2023/12/04 10:56:33;;;;;;;17.23;10.63;;;;;;;2.39;96.12;101144.66;10510959;28;20216;-59
2023/12/04 11:01:55;;;;;;;20.00;11.05;;;;;;;2.42;94.12;101139.59;10502268;28;20075;-59
2023/12/04 11:07:19;;;;;;;17.95;10.68;;;;;;;2.38;94.52;101127.63;10505135;28;20051;-59
2023/12/04 11:12:45;;;;;;;18.92;10.55;;;;;;;2.47;93.84;101122.59;10509690;28;20075;-59
2023/12/04 11:18:09;;;;;;;17.65;10.23;;;;;;;2.52;95.59;101113.28;10521515;27;20044;-59
2023/12/04 11:23:31;;;;;;;18.45;10.88;;;;;;;2.56;95.32;101115.03;10513829;28;20056;-59
2023/12/04 11:28:54;;;;;;;24.42;11.50;;;;;;;2.63;96.68;101111.66;10520827;28;20882;-60
2023/12/04 11:34:15;;;;;;;18.55;10.30;;;;;;;2.66;95.23;101114.22;10520822;28;20524;-60
2023/12/04 11:39:38;;;;;;;19.42;11.00;;;;;;;2.72;97.22;101098.94;10509855;28;20393;-60
2023/12/04 11:45:02;;;;;;;17.23;10.57;;;;;;;2.72;95.82;101098.09;10514531;28;20053;-59
2023/12/04 11:50:25;;;;;;;16.63;10.48;;;;;;;2.77;96.57;101089.59;10522389;27;20090;-59
2023/12/04 11:55:47;;;;;;;16.95;10.50;;;;;;;2.78;95.72;101078.53;10512041;28;20055;-59
2023/12/04 12:01:11;;;;;;;16.55;9.95;;;;;;;2.76;92.27;101075.13;10522532;27;20052;-59
2023/12/04 12:06:33;;;;;;;17.25;10.00;;;;;;;2.75;94.59;101075.09;10506539;28;20040;-59
2023/12/04 12:11:55;;;;;;;16.88;10.55;;;;;;;2.75;95.98;101060.63;10510256;28;20097;-59
2023/12/04 12:17:16;;;;;;;16.75;10.10;;;;;;;2.76;96.01;101057.25;10513374;28;20048;-59
2023/12/04 12:22:43;;;;;;;16.38;10.45;;;;;;;2.78;96.86;101037.66;10512010;28;20708;-59
2023/12/04 12:28:05;;;;;;;16.98;10.48;;;;;;;2.81;94.54;101041.94;10513315;28;20048;-58
2023/12/04 12:33:27;;;;;;;15.48;9.57;;;;;;;2.81;94.41;101030.00;10511088;28;20128;-61
2023/12/04 12:38:49;;;;;;;17.05;9.77;;;;;;;2.82;93.59;101026.59;10516088;28;20138;-60
2023/12/04 12:44:11;;;;;;;16.33;10.07;;;;;;;2.84;93.70;101019.81;10516948;28;20052;-59
2023/12/04 12:49:35;;;;;;;16.88;10.35;;;;;;;2.86;95.26;101019.81;10515911;28;20416;-60
2023/12/04 12:55:04;;;;;;;17.05;10.02;;;;;;;2.87;94.68;101006.19;10530061;28;20060;-59
2023/12/04 13:00:27;;;;;;;16.08;10.30;;;;;;;2.88;95.06;100995.13;10518325;28;20067;-60
2023/12/04 13:05:49;;;;;;;15.15;9.85;;;;;;;2.89;95.43;100990.00;10522552;28;20048;-59
2023/12/04 13:11:11;;;;;;;15.35;9.30;;;;;;;2.81;93.92;100989.13;10518401;28;20593;-60
2023/12/04 13:16:35;;;;;;;15.77;9.77;;;;;;;2.85;93.68;100983.19;10534607;27;20048;-58
2023/12/04 13:21:57;;;;;;;13.00;9.13;;;;;;;2.86;94.56;100984.03;10525358;28;20413;-59
2023/12/04 13:27:19;;;;;;;17.08;9.63;;;;;;;2.81;93.35;100971.25;10525037;28;20076;-58
2023/12/04 13:32:40;;;;;;;14.13;9.07;;;;;;;2.85;94.33;100972.97;10522866;28;20040;-58
2023/12/04 13:38:02;;;;;;;15.85;9.68;;;;;;;2.82;93.38;100965.28;10516979;28;20052;-59
2023/12/04 13:49:04;;;;;;;16.63;9.75;;;;;;;2.83;93.39;100953.38;10512648;28;20044;-58
2023/12/04 13:54:42;;;;;;;14.43;9.48;;;;;;;2.84;94.49;100945.72;10521509;27;20575;-59
2023/12/04 14:00:05;;;;;;;15.88;9.93;;;;;;;2.82;93.98;100932.06;10528832;28;20044;-59
2023/12/04 14:05:27;;;;;;;15.30;10.07;;;;;;;2.83;95.67;100928.69;10532127;28;20484;-59
2023/12/04 14:10:49;;;;;;;16.42;10.02;;;;;;;2.78;93.38;100915.03;10524668;28;20059;-59
2023/12/04 14:16:12;;;;;;;14.82;9.43;;;;;;;2.80;93.27;100917.63;10514248;28;20052;-59
2023/12/04 14:21:34;;;;;;;15.85;9.82;;;;;;;2.77;92.37;100912.47;10518790;28;20055;-59
2023/12/04 14:26:55;;;;;;;14.48;9.95;;;;;;;2.74;95.02;100903.13;10507598;28;20058;-59
2023/12/04 14:32:19;;;;;;;16.05;10.00;;;;;;;2.72;93.80;100889.50;10520130;28;20481;-60
2023/12/04 14:37:42;;;;;;;15.57;9.98;;;;;;;2.69;94.25;100898.84;10511990;28;20107;-60
2023/12/04 14:43:05;;;;;;;16.95;10.75;;;;;;;2.67;95.11;100909.06;10516256;28;20088;-60
2023/12/04 14:48:27;;;;;;;18.13;11.13;;;;;;;2.65;94.84;100884.34;10518628;28;20062;-59
2023/12/04 14:53:50;;;;;;;16.30;10.32;;;;;;;2.64;95.07;100886.06;10528096;28;20052;-59
2023/12/04 14:59:45;;;;;;;19.70;10.82;;;;;;;2.60;96.15;100884.31;10531107;27;20072;-59
2023/12/04 15:16:14;;;;;;;16.70;9.48;;;;;;;2.55;94.89;100860.50;10517041;28;20056;-59
2023/12/04 15:21:31;;;;;;;14.75;10.15;;;;;;;2.56;93.88;100857.09;10527121;28;20488;-60
2023/12/04 15:26:53;;;;;;;17.20;10.23;;;;;;;2.55;94.64;100850.28;10515159;28;20129;-60
2023/12/04 15:32:15;;;;;;;14.50;9.30;;;;;;;2.53;93.29;100846.00;10515211;28;20063;-60
2023/12/04 15:37:37;;;;;;;16.20;9.68;;;;;;;2.50;93.57;100835.78;10521936;28;20048;-60
2023/12/04 15:42:58;;;;;;;16.33;9.20;;;;;;;2.45;92.75;100828.13;10530364;28;20405;-60
2023/12/04 15:48:20;;;;;;;15.32;9.88;;;;;;;2.47;93.03;100851.94;10520928;28;20032;-60
2023/12/04 15:53:42;;;;;;;16.52;10.23;;;;;;;2.47;94.11;100851.94;10519214;28;20059;-60
2023/12/04 15:59:03;;;;;;;16.95;10.18;;;;;;;2.44;91.43;100846.84;10517054;28;20508;-60
2023/12/04 16:04:25;;;;;;;15.10;9.75;;;;;;;2.43;90.52;100847.69;10520519;28;20047;-60
2023/12/04 16:09:47;;;;;;;16.10;9.18;;;;;;;2.44;91.76;100838.31;10513713;28;20063;-60
2023/12/04 16:15:09;;;;;;;14.55;9.15;;;;;;;2.42;91.57;100838.31;10514295;28;20143;-60
2023/12/04 16:20:32;;;;;;;15.63;9.63;;;;;;;2.45;90.57;100840.91;10512244;28;20058;-60
2023/12/04 16:25:54;;;;;;;23.80;10.18;;;;;;;2.50;92.43;100836.66;10517009;28;20546;-60
2023/12/04 16:31:16;;;;;;;14.75;9.20;;;;;;;2.52;95.11;100829.84;10513721;28;20063;-61
2023/12/04 16:36:38;;;;;;;17.58;9.95;;;;;;;2.54;95.17;100829.84;10516994;28;20055;-61
2023/12/04 16:42:00;;;;;;;16.27;9.68;;;;;;;2.55;95.17;100828.97;10517152;28;20502;-60
2023/12/04 16:47:21;;;;;;;17.95;10.10;;;;;;;2.55;95.81;100824.75;10520842;28;20055;-60
2023/12/04 16:52:43;;;;;;;14.27;9.07;;;;;;;2.54;94.16;100828.16;10513472;28;20053;-60
2023/12/04 16:58:06;;;;;;;14.73;9.52;;;;;;;2.53;94.09;100823.88;10510219;28;20043;-60
2023/12/04 17:03:28;;;;;;;16.92;9.25;;;;;;;2.50;93.54;100807.69;10514938;28;20048;-60
2023/12/04 17:08:50;;;;;;;14.88;9.70;;;;;;;2.50;94.88;100806.00;10511121;28;20043;-60
2023/12/04 17:14:12;;;;;;;14.90;9.45;;;;;;;2.48;94.00;100800.03;10512490;28;20473;-60
2023/12/04 17:19:35;;;;;;;17.00;9.63;;;;;;;2.52;95.72;100789.00;10516818;28;20094;-61
2023/12/04 17:24:57;;;;;;;16.50;10.20;;;;;;;2.49;91.76;100788.97;10528813;27;20060;-60
2023/12/04 17:30:18;;;;;;;17.20;10.13;;;;;;;2.47;93.21;100784.72;10530425;28;20036;-60
2023/12/04 17:35:40;;;;;;;14.90;9.65;;;;;;;2.41;91.63;100777.91;10515750;28;20501;-61
2023/12/04 17:41:02;;;;;;;15.18;9.48;;;;;;;2.41;92.10;100777.91;10513972;28;20435;-61
2023/12/04 17:46:24;;;;;;;14.65;9.48;;;;;;;2.44;92.88;100788.13;10520358;28;20147;-60
2023/12/04 17:51:46;;;;;;;13.48;9.02;;;;;;;2.43;93.08;100783.00;10498726;28;20949;-60
2023/12/04 17:57:07;;;;;;;16.45;10.13;;;;;;;2.40;93.11;100778.75;10526589;27;20167;-60
2023/12/04 18:02:29;;;;;;;15.20;8.50;;;;;;;2.37;91.02;100773.66;10509490;28;20048;-61
2023/12/04 18:07:51;;;;;;;14.18;9.05;;;;;;;2.41;94.95;100765.16;10513033;28;20385;-61
2023/12/04 18:13:13;;;;;;;14.65;8.70;;;;;;;2.43;91.72;100758.34;10516063;28;20075;-60
2023/12/04 18:18:34;;;;;;;13.13;9.00;;;;;;;2.43;91.48;100762.59;10520846;28;20048;-61
2023/12/04 18:23:56;;;;;;;13.35;8.32;;;;;;;2.47;92.76;100762.59;10523839;27;20554;-60
2023/12/04 18:29:18;;;;;;;15.68;9.23;;;;;;;2.52;93.24;100758.34;10507763;28;20052;-60
2023/12/04 18:34:40;;;;;;;14.93;9.10;;;;;;;2.54;94.05;100756.66;10527033;28;21929;-60
2023/12/04 18:40:04;;;;;;;13.05;8.63;;;;;;;2.49;92.20;100752.41;10496390;28;20048;-60
2023/12/04 18:45:26;;;;;;;13.10;8.90;;;;;;;2.49;90.31;100753.22;10514356;28;20083;-60
2023/12/04 18:50:50;;;;;;;14.50;9.25;;;;;;;2.48;92.91;100736.22;10530741;28;20055;-61
2023/12/04 18:56:12;;;;;;;15.93;9.18;;;;;;;2.47;92.18;100728.56;10514515;28;20048;-60
2023/12/04 19:01:35;;;;;;;16.15;9.52;;;;;;;2.46;92.06;100721.72;10516146;28;20044;-60
2023/12/04 19:06:57;;;;;;;15.27;9.02;;;;;;;2.41;90.88;100719.19;10522789;28;20066;-61
2023/12/04 19:12:18;;;;;;;12.35;8.90;;;;;;;2.41;92.52;100714.09;10512388;28;20056;-60
2023/12/04 19:17:40;;;;;;;15.20;9.23;;;;;;;2.43;90.91;100707.28;10504808;28;20048;-60
2023/12/04 19:23:03;;;;;;;15.68;8.88;;;;;;;2.44;90.86;100726.84;10515262;28;20412;-60
2023/12/04 19:28:29;;;;;;;14.25;9.23;;;;;;;2.43;91.02;100720.06;10525021;27;20048;-60
2023/12/04 19:33:50;;;;;;;16.92;8.98;;;;;;;2.46;91.51;100720.03;10515166;28;20059;-60
2023/12/04 19:39:12;;;;;;;14.93;9.13;;;;;;;2.45;91.74;100715.81;10511293;28;20385;-60
2023/12/04 19:44:34;;;;;;;13.27;8.63;;;;;;;2.43;89.99;100707.28;10520205;28;20056;-61
2023/12/04 19:49:56;;;;;;;14.60;8.32;;;;;;;2.47;92.32;100692.81;10509381;28;20047;-61
2023/12/04 19:55:17;;;;;;;13.07;8.63;;;;;;;2.45;92.55;100700.47;10504335;28;20068;-60
2023/12/04 20:00:39;;;;;;;14.82;8.07;;;;;;;2.44;91.79;100696.22;10509498;28;20052;-61
2023/12/04 20:06:01;;;;;;;14.20;8.88;;;;;;;2.47;92.92;100688.53;10502985;28;20445;-61
2023/12/04 20:11:24;;;;;;;15.30;7.80;;;;;;;2.45;92.72;100671.53;10502453;28;20807;-61
2023/12/04 20:16:52;;;;;;;13.40;8.07;;;;;;;2.44;91.55;100667.28;10507030;28;20216;-61
2023/12/04 20:22:15;;;;;;;11.45;7.45;;;;;;;2.45;92.80;100659.63;10509023;28;20181;-61
2023/12/04 20:27:38;;;;;;;12.00;7.18;;;;;;;2.47;91.73;100657.06;10514927;28;20137;-61
2023/12/04 20:33:00;;;;;;;11.60;7.22;;;;;;;2.45;91.60;100641.75;10516150;28;20048;-61
2023/12/04 20:38:23;;;;;;;12.98;6.97;;;;;;;2.47;92.09;100642.59;10503653;28;20167;-60
2023/12/04 20:43:45;;;;;;;14.35;7.90;;;;;;;2.42;91.44;100641.75;10516220;28;20051;-61
2023/12/04 20:49:07;;;;;;;12.45;7.57;;;;;;;2.42;90.75;100646.84;10510070;28;20052;-60
2023/12/04 20:54:29;;;;;;;12.38;7.30;;;;;;;2.45;92.11;100639.22;10527990;28;20144;-60
2023/12/04 20:59:51;;;;;;;12.25;7.43;;;;;;;2.44;91.23;100637.50;10519722;28;20178;-60
2023/12/04 21:05:12;;;;;;;11.55;7.35;;;;;;;2.47;91.34;100645.13;10531932;28;20079;-60
2023/12/04 21:10:34;;;;;;;13.85;7.75;;;;;;;2.49;91.07;100638.34;10519042;28;20040;-60
2023/12/04 21:15:56;;;;;;;13.68;8.05;;;;;;;2.48;90.27;100639.19;10531685;28;20083;-60
2023/12/04 21:21:18;;;;;;;14.15;7.93;;;;;;;2.46;90.60;100634.94;10518280;28;20040;-60
2023/12/04 21:26:40;;;;;;;12.63;8.00;;;;;;;2.45;91.48;100644.31;10514287;28;20050;-60
2023/12/04 21:32:01;;;;;;;12.40;7.70;;;;;;;2.44;90.32;100642.59;10516278;28;20688;-61
2023/12/04 21:37:24;;;;;;;13.23;7.85;;;;;;;2.39;89.44;100634.09;10517700;28;20133;-60
2023/12/04 21:42:46;;;;;;;12.07;7.50;;;;;;;2.38;90.30;100637.47;10521249;28;20139;-60
2023/12/04 21:48:08;;;;;;;13.25;8.75;;;;;;;2.36;88.74;100639.22;10518947;28;20076;-60
2023/12/04 21:53:30;;;;;;;12.35;7.78;;;;;;;2.30;88.25;100631.56;10517453;28;20050;-60
2023/12/04 21:58:52;;;;;;;14.30;8.27;;;;;;;2.27;89.13;100628.16;10517373;28;20048;-61
2023/12/04 22:04:13;;;;;;;13.63;8.13;;;;;;;2.27;90.15;100628.16;10519572;28;20041;-60
2023/12/04 22:09:35;;;;;;;12.85;8.25;;;;;;;2.21;91.65;100618.78;10523745;28;20135;-60
2023/12/04 22:14:57;;;;;;;11.45;7.38;;;;;;;2.10;92.45;100611.97;10528782;28;20107;-60
2023/12/04 22:20:20;;;;;;;13.40;8.93;;;;;;;2.01;93.65;100607.72;10528701;27;20044;-60
2023/12/04 22:25:41;;;;;;;17.40;9.00;;;;;;;1.86;93.62;100605.16;10518988;28;20063;-60
2023/12/04 22:31:04;;;;;;;13.45;8.45;;;;;;;1.84;96.15;100606.84;10526516;28;20062;-60
2023/12/04 22:36:26;;;;;;;14.45;8.77;;;;;;;1.75;96.51;100605.13;10528980;27;20052;-60
2023/12/04 22:41:47;;;;;;;15.27;8.88;;;;;;;1.67;98.24;100599.16;10505242;28;20417;-60
2023/12/04 22:47:09;;;;;;;19.70;9.52;;;;;;;1.64;98.57;100598.31;10517112;28;20136;-60
2023/12/04 22:52:31;;;;;;;18.30;8.75;;;;;;;1.61;99.34;100598.31;10513480;28;20443;-60
2023/12/04 22:57:52;;;;;;;20.10;9.88;;;;;;;1.58;100.00;100588.09;10524507;27;20052;-60
2023/12/04 23:03:14;;;;;;;15.57;9.32;;;;;;;1.55;100.00;100588.09;10512320;28;20060;-60
2023/12/04 23:08:36;;;;;;;17.40;9.27;;;;;;;1.56;100.00;100584.69;10514323;28;20047;-59
2023/12/04 23:13:57;;;;;;;17.60;10.15;;;;;;;1.51;100.00;100586.38;10526160;28;20990;-60
2023/12/04 23:19:19;;;;;;;17.50;9.68;;;;;;;1.51;100.00;100586.38;10515466;28;20040;-60
2023/12/04 23:24:41;;;;;;;16.70;9.55;;;;;;;1.48;100.00;100578.72;10525618;28;20081;-60
2023/12/04 23:30:04;;;;;;;15.43;9.55;;;;;;;1.48;100.00;100568.53;10511731;28;20036;-60
2023/12/04 23:35:26;;;;;;;15.90;9.40;;;;;;;1.48;100.00;100576.19;10531374;27;20405;-59
2023/12/04 23:40:47;;;;;;;17.40;10.25;;;;;;;1.43;100.00;100565.13;10525349;27;20044;-60
2023/12/04 23:46:09;;;;;;;18.23;10.80;;;;;;;1.38;100.00;100559.16;10512739;28;20044;-60
2023/12/04 23:51:31;;;;;;;17.27;10.23;;;;;;;1.39;100.00;100546.41;10503712;28;20577;-59
2023/12/04 23:56:52;;;;;;;17.90;10.13;;;;;;;1.37;100.00;100543.03;10512065;28;20208;-59
